Time;durP1;ratioP1;P1;durP2;ratioP2;P2;SDS_P1;SDS_P2;PMS_P1;PMS_P2;Temp;Humidity;BMP_temperature;BMP_pressure;BME280_temperature;BME280_humidity;BME280_pressure;Samples;Min_cycle;Max_cycle;Signal;HPM_P1;HPM_P2
2021/04/18 00:01:29;;;;;;;26.50;15.57;;;;;;;5.35;66.95;98882.75;5030747;28;20454;-65
2021/04/18 00:03:55;;;;;;;25.57;16.20;;;;;;;5.37;66.55;98881.94;5030386;28;20585;-64
2021/04/18 00:06:21;;;;;;;24.10;14.93;;;;;;;5.36;66.73;98877.69;5036566;28;20053;-64
2021/04/18 00:08:47;;;;;;;26.53;17.70;;;;;;;5.40;66.73;98879.41;5032926;28;20044;-65
2021/04/18 00:11:12;;;;;;;24.83;16.47;;;;;;;5.37;66.95;98876.88;5037591;28;20021;-66
2021/04/18 00:13:38;;;;;;;27.03;16.80;;;;;;;5.39;67.03;98882.78;5028606;28;20043;-67
2021/04/18 00:16:03;;;;;;;24.77;17.17;;;;;;;5.33;66.64;98875.16;5036485;28;20030;-64
2021/04/18 00:18:29;;;;;;;25.60;15.83;;;;;;;5.26;67.02;98872.56;5036233;28;20025;-65
2021/04/18 00:20:56;;;;;;;26.93;16.87;;;;;;;5.18;67.18;98871.69;5030041;28;20068;-65
2021/04/18 00:23:21;;;;;;;29.13;16.23;;;;;;;5.16;67.65;98866.56;5028748;28;20098;-65
2021/04/18 00:25:47;;;;;;;26.23;17.10;;;;;;;5.09;68.04;98866.53;5030345;28;20326;-65
2021/04/18 00:28:12;;;;;;;26.87;17.73;;;;;;;5.18;67.79;98869.97;5031946;28;20053;-65
2021/04/18 00:30:38;;;;;;;27.83;17.13;;;;;;;5.07;67.74;98869.91;5027993;28;20441;-66
2021/04/18 00:33:03;;;;;;;29.27;18.13;;;;;;;5.09;68.15;98869.94;5029911;28;20035;-65
2021/04/18 00:35:29;;;;;;;26.37;16.50;;;;;;;5.15;67.76;98861.47;5033450;28;20040;-66
2021/04/18 00:37:54;;;;;;;25.43;16.30;;;;;;;5.11;67.92;98860.59;5033441;28;20378;-66
2021/04/18 00:40:22;;;;;;;27.90;17.13;;;;;;;5.09;68.28;98862.31;5030691;28;20040;-67
2021/04/18 00:42:48;;;;;;;27.90;16.87;;;;;;;5.12;67.87;98858.91;5031581;28;20378;-66
2021/04/18 00:45:14;;;;;;;30.13;17.97;;;;;;;5.06;68.54;98864.81;5033050;28;20413;-66
2021/04/18 00:47:43;;;;;;;29.77;18.07;;;;;;;5.16;68.38;98860.63;5032552;28;20047;-67
2021/04/18 00:50:11;;;;;;;30.27;18.23;;;;;;;5.10;68.63;98865.66;5030989;28;20419;-67
2021/04/18 00:52:37;;;;;;;29.97;16.70;;;;;;;5.10;69.05;98853.81;5041964;28;20033;-65
2021/04/18 00:55:05;;;;;;;29.47;18.60;;;;;;;5.11;69.42;98854.66;5032567;28;20029;-66
2021/04/18 00:57:31;;;;;;;31.57;18.23;;;;;;;5.05;69.41;98850.38;5032325;28;20302;-67
2021/04/18 00:59:59;;;;;;;29.93;17.63;;;;;;;5.15;69.06;98852.16;5032740;28;20112;-66
2021/04/18 01:02:24;;;;;;;32.60;18.70;;;;;;;5.16;69.25;98851.31;5029726;28;20030;-67
2021/04/18 01:04:49;;;;;;;32.70;19.70;;;;;;;5.12;69.00;98847.06;5027239;28;20064;-66
2021/04/18 01:07:15;;;;;;;31.67;20.50;;;;;;;5.10;69.37;98848.72;5036911;28;20050;-67
2021/04/18 01:09:40;;;;;;;31.10;18.70;;;;;;;5.00;69.70;98837.69;5040037;28;20374;-67
2021/04/18 01:12:06;;;;;;;31.80;19.47;;;;;;;5.00;69.74;98836.84;5029690;28;20028;-67
2021/04/18 01:14:32;;;;;;;29.37;17.70;;;;;;;5.06;69.53;98834.31;5028701;28;20377;-67
2021/04/18 01:16:57;;;;;;;30.43;18.53;;;;;;;5.06;69.60;98836.84;5032985;28;20079;-67
2021/04/18 01:19:22;;;;;;;29.10;17.43;;;;;;;5.03;69.30;98836.84;5032899;28;20033;-67
2021/04/18 01:21:48;;;;;;;31.87;19.20;;;;;;;5.09;69.15;98836.91;5030260;28;20029;-67
2021/04/18 01:24:13;;;;;;;30.33;18.60;;;;;;;5.07;69.51;98829.25;5030985;28;20361;-66
2021/04/18 01:26:38;;;;;;;29.10;17.80;;;;;;;5.03;69.96;98824.13;5030865;28;20029;-66
2021/04/18 01:29:04;;;;;;;29.50;18.30;;;;;;;5.04;69.92;98833.47;5046536;28;20307;-67
2021/04/18 01:31:30;;;;;;;33.23;17.90;;;;;;;4.95;69.84;98833.41;5030271;28;20040;-66
2021/04/18 01:33:56;;;;;;;30.63;18.03;;;;;;;4.92;70.17;98823.22;5033161;28;20029;-67
2021/04/18 01:36:22;;;;;;;28.33;17.37;;;;;;;5.07;70.07;98830.94;5033779;28;20032;-67
2021/04/18 01:38:48;;;;;;;32.53;18.57;;;;;;;5.02;70.28;98824.97;5034545;28;20056;-66
2021/04/18 01:41:13;;;;;;;32.03;18.27;;;;;;;4.98;70.08;98824.09;5028010;28;20061;-67
2021/04/18 01:43:39;;;;;;;29.43;17.83;;;;;;;5.01;70.11;98823.25;5033179;28;20041;-66
2021/04/18 01:46:05;;;;;;;32.43;18.77;;;;;;;4.96;70.23;98822.41;5030609;28;20036;-66
2021/04/18 01:48:31;;;;;;;29.80;18.07;;;;;;;4.92;69.97;98823.22;5032562;28;20030;-67
2021/04/18 01:50:56;;;;;;;32.77;18.60;;;;;;;4.93;70.35;98813.06;5032694;28;20283;-66
2021/04/18 01:53:22;;;;;;;32.50;19.90;;;;;;;4.94;70.05;98826.63;5028509;28;20109;-66
2021/04/18 01:55:47;;;;;;;33.77;19.57;;;;;;;4.86;70.13;98815.56;5029654;28;20045;-66
2021/04/18 01:58:13;;;;;;;30.53;18.47;;;;;;;4.94;69.75;98813.91;5028789;28;20029;-66
2021/04/18 02:00:38;;;;;;;30.07;18.13;;;;;;;5.01;69.93;98818.19;5028926;28;20045;-66
2021/04/18 02:03:04;;;;;;;26.63;17.23;;;;;;;4.92;70.15;98818.16;5028554;28;20040;-66
2021/04/18 02:05:32;;;;;;;28.80;18.50;;;;;;;4.91;70.22;98812.22;5030372;28;20029;-66
2021/04/18 02:07:57;;;;;;;33.27;18.53;;;;;;;4.84;70.59;98817.22;5030974;28;20059;-66
2021/04/18 02:10:23;;;;;;;29.03;18.23;;;;;;;4.84;70.50;98814.69;5027310;28;20470;-67
2021/04/18 02:12:49;;;;;;;33.07;19.67;;;;;;;4.82;70.25;98818.91;5028478;28;20083;-66
2021/04/18 02:15:14;;;;;;;32.33;18.40;;;;;;;4.90;70.30;98815.59;5032041;28;20105;-65
2021/04/18 02:17:40;;;;;;;32.77;19.00;;;;;;;4.80;70.86;98807.88;5030270;28;20112;-67
2021/04/18 02:20:07;;;;;;;30.40;19.33;;;;;;;4.83;70.35;98810.47;5029570;28;20029;-67
2021/04/18 02:22:33;;;;;;;31.27;18.97;;;;;;;4.78;70.86;98817.19;5033317;28;20383;-65
2021/04/18 02:24:58;;;;;;;33.10;20.20;;;;;;;4.78;70.52;98814.66;5035144;28;20331;-66
2021/04/18 02:27:28;;;;;;;29.53;17.77;;;;;;;4.82;70.54;98812.16;5032880;28;20041;-66
2021/04/18 02:29:56;;;;;;;34.17;18.70;;;;;;;4.84;70.20;98802.84;5031132;28;20025;-67
2021/04/18 02:32:22;;;;;;;34.90;18.70;;;;;;;4.85;70.18;98807.09;5031073;28;20021;-66
2021/04/18 02:34:49;;;;;;;32.63;19.10;;;;;;;4.87;70.09;98807.09;5027341;28;20033;-66
2021/04/18 02:37:15;;;;;;;30.57;19.00;;;;;;;4.77;70.82;98800.25;5029416;28;20025;-66
2021/04/18 02:39:40;;;;;;;35.00;20.00;;;;;;;4.76;70.66;98793.47;5024955;28;20105;-66
2021/04/18 02:42:06;;;;;;;33.53;19.03;;;;;;;4.74;70.64;98793.47;5027512;28;20226;-66
2021/04/18 02:44:31;;;;;;;33.33;19.13;;;;;;;4.81;70.44;98796.91;5026457;28;20086;-66
2021/04/18 02:46:57;;;;;;;33.73;19.37;;;;;;;4.79;70.60;98786.75;5031884;28;20037;-66
2021/04/18 02:49:22;;;;;;;32.10;18.83;;;;;;;4.77;70.73;98787.56;5029549;28;20025;-66
2021/04/18 02:51:48;;;;;;;34.33;19.37;;;;;;;4.73;70.69;98793.47;5028527;28;20040;-66
2021/04/18 02:54:13;;;;;;;29.37;18.23;;;;;;;4.76;70.62;98791.78;5034082;28;20037;-66
2021/04/18 02:56:39;;;;;;;31.13;19.87;;;;;;;4.78;70.38;98789.25;5034064;28;20655;-66
2021/04/18 02:59:04;;;;;;;35.40;20.63;;;;;;;4.70;70.64;98801.06;5030122;28;20036;-66
2021/04/18 03:01:29;;;;;;;35.63;20.40;;;;;;;4.71;70.73;98790.91;5035763;28;20030;-66
2021/04/18 03:03:55;;;;;;;34.13;18.63;;;;;;;4.75;70.44;98796.88;5031571;28;20303;-67
2021/04/18 03:06:20;;;;;;;33.57;19.17;;;;;;;4.71;70.75;98777.38;5039766;28;20143;-66
2021/04/18 03:08:46;;;;;;;32.93;19.67;;;;;;;4.73;70.64;98783.31;5030564;28;20038;-66
2021/04/18 03:11:11;;;;;;;37.40;19.70;;;;;;;4.73;70.81;98781.63;5032978;28;20279;-66
2021/04/18 03:13:37;;;;;;;31.10;18.23;;;;;;;4.68;70.58;98780.72;5040521;28;20394;-66
2021/04/18 03:16:03;;;;;;;29.97;19.20;;;;;;;4.71;70.85;98785.00;5040997;28;20401;-66
2021/04/18 03:18:29;;;;;;;36.63;20.07;;;;;;;4.70;70.88;98781.59;5029982;28;20025;-66
2021/04/18 03:20:54;;;;;;;33.87;18.93;;;;;;;4.74;70.77;98779.94;5035527;28;20033;-66
2021/04/18 03:23:19;;;;;;;36.53;20.23;;;;;;;4.74;70.85;98785.00;5038146;28;20030;-66
2021/04/18 03:25:45;;;;;;;35.37;19.30;;;;;;;4.76;71.10;98784.16;5028820;28;20442;-66
2021/04/18 03:28:10;;;;;;;35.57;19.97;;;;;;;4.83;70.58;98774.91;5029014;28;20394;-66
2021/04/18 03:30:36;;;;;;;32.63;19.60;;;;;;;4.71;70.75;98790.06;5032753;28;20041;-67
2021/04/18 03:33:02;;;;;;;33.47;18.93;;;;;;;4.77;70.41;98779.94;5030161;28;20029;-66
2021/04/18 03:35:28;;;;;;;33.40;18.00;;;;;;;4.65;71.30;98777.31;5031425;28;20048;-66
2021/04/18 03:37:53;;;;;;;30.30;17.93;;;;;;;4.71;71.08;98772.31;5029720;28;20391;-66
2021/04/18 03:40:19;;;;;;;35.27;19.87;;;;;;;4.72;71.53;98784.13;5034235;28;20445;-67
2021/04/18 03:42:44;;;;;;;35.10;19.23;;;;;;;4.75;71.25;98786.72;5034655;28;20065;-66
2021/04/18 03:45:10;;;;;;;33.53;19.90;;;;;;;4.75;71.14;98777.41;5031316;28;20037;-66
2021/04/18 03:47:36;;;;;;;34.07;18.67;;;;;;;4.77;70.81;98782.47;5026313;28;20065;-66
2021/04/18 03:50:03;;;;;;;30.53;19.33;;;;;;;4.80;70.52;98780.81;5032536;28;20100;-64
2021/04/18 03:52:29;;;;;;;34.30;19.40;;;;;;;4.76;70.64;98791.78;5032850;28;20408;-65
2021/04/18 03:54:54;;;;;;;35.77;20.07;;;;;;;4.79;70.96;98776.59;5034984;28;20036;-65
2021/04/18 03:57:20;;;;;;;33.43;18.70;;;;;;;4.79;70.45;98781.66;5033559;28;20029;-65
2021/04/18 03:59:45;;;;;;;33.03;18.67;;;;;;;4.83;70.74;98783.38;5031107;28;20034;-66
2021/04/18 04:02:10;;;;;;;34.53;19.50;;;;;;;4.78;70.38;98784.19;5035201;28;20036;-66
2021/04/18 04:04:36;;;;;;;31.90;19.27;;;;;;;4.77;71.14;98785.03;5041951;28;20128;-66
2021/04/18 04:07:02;;;;;;;31.33;18.10;;;;;;;4.75;71.12;98776.56;5036118;28;20041;-66
2021/04/18 04:09:29;;;;;;;34.07;18.97;;;;;;;4.73;70.97;98786.69;5029289;28;20054;-66
2021/04/18 04:11:55;;;;;;;34.67;17.60;;;;;;;4.76;70.76;98775.69;5036375;28;20174;-66
2021/04/18 04:14:21;;;;;;;31.13;17.57;;;;;;;4.79;71.04;98775.72;5035665;28;20030;-66
2021/04/18 04:16:46;;;;;;;33.10;18.83;;;;;;;4.74;70.80;98780.78;5028005;28;20256;-66
2021/04/18 04:19:12;;;;;;;32.00;18.33;;;;;;;4.77;70.98;98778.25;5035887;28;20276;-66
2021/04/18 04:21:37;;;;;;;34.10;20.57;;;;;;;4.83;70.91;98777.44;5034222;28;20036;-66
2021/04/18 04:24:03;;;;;;;33.73;18.43;;;;;;;4.80;71.06;98780.81;5031729;28;20037;-66
2021/04/18 04:26:28;;;;;;;31.27;19.10;;;;;;;4.76;71.43;98783.31;5030360;28;20030;-66
2021/04/18 04:28:54;;;;;;;32.03;18.83;;;;;;;4.78;71.00;98781.66;5035513;28;20038;-66
2021/04/18 04:31:20;;;;;;;35.57;19.80;;;;;;;4.76;70.67;98790.94;5031855;28;20040;-66
2021/04/18 04:33:45;;;;;;;32.00;19.30;;;;;;;4.76;70.87;98790.94;5029588;28;20044;-66
2021/04/18 04:36:11;;;;;;;29.83;19.20;;;;;;;4.77;70.81;98787.56;5028268;28;20388;-66
2021/04/18 04:38:36;;;;;;;30.83;19.03;;;;;;;4.90;70.39;98794.41;5035624;28;20029;-66
2021/04/18 04:41:02;;;;;;;29.33;17.40;;;;;;;4.89;70.47;98800.34;5031259;28;20375;-66
2021/04/18 04:43:27;;;;;;;30.37;17.70;;;;;;;4.86;71.09;98800.31;5029166;28;20057;-65
2021/04/18 04:45:53;;;;;;;28.73;17.40;;;;;;;4.90;71.09;98800.34;5033441;28;20078;-64
2021/04/18 04:48:18;;;;;;;32.93;17.90;;;;;;;4.81;70.92;98805.38;5029921;28;20041;-66
2021/04/18 04:50:44;;;;;;;33.47;18.53;;;;;;;4.89;70.69;98806.25;5032954;28;20039;-67
2021/04/18 04:53:10;;;;;;;32.30;18.63;;;;;;;4.92;71.12;98810.53;5031442;28;20415;-67
2021/04/18 04:55:35;;;;;;;31.13;18.67;;;;;;;4.81;71.22;98804.50;5032392;28;20068;-66
2021/04/18 04:58:01;;;;;;;30.03;17.63;;;;;;;4.90;70.74;98810.50;5029986;28;20287;-65
2021/04/18 05:00:26;;;;;;;30.13;17.73;;;;;;;4.76;70.92;98811.25;5028350;28;20051;-65
2021/04/18 05:02:52;;;;;;;29.97;17.47;;;;;;;4.80;71.14;98808.75;5034012;28;20128;-67
2021/04/18 05:05:17;;;;;;;32.50;18.27;;;;;;;4.76;71.36;98813.78;5031911;28;20033;-65
2021/04/18 05:07:43;;;;;;;34.03;19.80;;;;;;;4.80;71.31;98812.97;5028687;28;20103;-67
2021/04/18 05:10:08;;;;;;;31.87;18.23;;;;;;;4.88;71.15;98807.09;5029924;28;20037;-65
2021/04/18 05:12:34;;;;;;;27.83;18.10;;;;;;;4.83;71.19;98815.56;5027255;28;20043;-65
2021/04/18 05:14:59;;;;;;;28.57;17.83;;;;;;;4.88;71.20;98808.81;5028546;28;20316;-66
2021/04/18 05:17:26;;;;;;;31.97;18.37;;;;;;;4.83;71.39;98805.38;5030586;28;20076;-66
2021/04/18 05:19:52;;;;;;;63.60;32.27;;;;;;;4.82;71.89;98808.75;5039380;28;20120;-65
2021/04/18 05:22:17;;;;;;;61.53;30.03;;;;;;;4.80;72.09;98807.88;5034864;28;20047;-65
2021/04/18 05:24:42;;;;;;;66.13;34.90;;;;;;;4.93;71.62;98813.06;5045651;28;20413;-65
2021/04/18 05:27:08;;;;;;;63.30;31.13;;;;;;;4.91;72.23;98812.22;5025558;28;20052;-67
2021/04/18 05:29:33;;;;;;;58.07;30.43;;;;;;;4.88;72.16;98816.44;5034982;28;20382;-65
2021/04/18 05:31:59;;;;;;;38.93;22.50;;;;;;;4.86;72.06;98813.03;5029425;28;20037;-65
2021/04/18 05:34:24;;;;;;;40.53;21.90;;;;;;;4.84;72.30;98812.16;5029351;28;20116;-65
2021/04/18 05:36:50;;;;;;;38.00;21.53;;;;;;;4.82;72.05;98811.31;5032394;28;20120;-65
2021/04/18 05:39:15;;;;;;;31.43;18.93;;;;;;;4.86;72.67;98806.25;5034765;28;20402;-64
2021/04/18 05:41:41;;;;;;;35.43;18.67;;;;;;;4.84;72.96;98809.59;5030658;28;20029;-65
2021/04/18 05:44:08;;;;;;;31.43;18.93;;;;;;;4.79;72.63;98802.00;5030410;28;20037;-65
2021/04/18 05:46:34;;;;;;;31.03;17.43;;;;;;;4.86;72.77;98810.47;5030176;28;20022;-65
2021/04/18 05:48:59;;;;;;;28.43;16.97;;;;;;;4.87;72.88;98809.66;5030259;28;20029;-65
2021/04/18 05:51:24;;;;;;;37.17;20.93;;;;;;;4.94;72.67;98808.84;5028131;28;20049;-65
2021/04/18 05:53:50;;;;;;;29.97;17.50;;;;;;;4.94;72.56;98808.84;5027892;28;20041;-65
2021/04/18 05:56:15;;;;;;;31.47;17.93;;;;;;;4.98;72.64;98802.94;5031806;28;20032;-65
2021/04/18 05:58:41;;;;;;;28.77;17.03;;;;;;;4.89;72.65;98811.34;5031108;28;20378;-65
2021/04/18 06:01:06;;;;;;;27.30;17.80;;;;;;;4.92;72.50;98808.00;5032364;28;20287;-68
2021/04/18 06:03:32;;;;;;;32.73;18.57;;;;;;;4.84;72.71;98807.91;5025646;28;20021;-65
2021/04/18 06:05:57;;;;;;;28.47;17.50;;;;;;;4.97;72.26;98816.47;5025624;28;20040;-64
2021/04/18 06:08:23;;;;;;;29.93;17.00;;;;;;;4.88;72.35;98808.81;5032897;28;20082;-66
2021/04/18 06:10:48;;;;;;;33.93;16.43;;;;;;;4.89;72.31;98803.72;5030559;28;20341;-66
2021/04/18 06:13:14;;;;;;;31.60;16.73;;;;;;;4.84;72.10;98810.47;5030815;28;20040;-66
2021/04/18 06:15:39;;;;;;;29.50;16.73;;;;;;;4.94;71.96;98814.78;5026784;28;20032;-65
2021/04/18 06:18:04;;;;;;;33.37;17.37;;;;;;;4.94;72.11;98809.69;5032306;28;20030;-66
2021/04/18 06:20:30;;;;;;;30.80;19.00;;;;;;;4.86;72.09;98816.41;5030165;28;20033;-64
2021/04/18 06:22:55;;;;;;;29.90;15.80;;;;;;;4.85;72.65;98817.25;5030163;28;20061;-66
2021/04/18 06:25:21;;;;;;;35.03;17.90;;;;;;;4.87;72.41;98809.66;5027715;28;20525;-66
2021/04/18 06:27:46;;;;;;;28.80;17.47;;;;;;;5.02;71.93;98822.44;5029527;28;20372;-64
2021/04/18 06:30:13;;;;;;;33.03;17.80;;;;;;;5.03;71.79;98819.91;5030625;28;20041;-65
2021/04/18 06:32:38;;;;;;;30.43;16.97;;;;;;;4.97;72.19;98821.53;5029154;28;20044;-65
2021/04/18 06:35:05;;;;;;;32.30;17.60;;;;;;;5.03;72.11;98822.44;5032400;28;20029;-67
2021/04/18 06:37:33;;;;;;;33.87;17.57;;;;;;;5.03;72.02;98824.13;5028082;28;20044;-67
2021/04/18 06:39:58;;;;;;;34.90;18.10;;;;;;;4.90;72.28;98824.91;5029031;28;20048;-67
2021/04/18 06:42:25;;;;;;;27.73;17.07;;;;;;;5.01;72.36;98819.03;5025988;28;20038;-66
2021/04/18 06:44:52;;;;;;;30.30;17.17;;;;;;;5.08;72.24;98822.47;5029166;28;20379;-65
2021/04/18 06:47:18;;;;;;;34.13;20.10;;;;;;;5.03;72.28;98819.91;5033438;28;20061;-66
2021/04/18 06:49:43;;;;;;;26.83;16.63;;;;;;;4.88;72.62;98813.91;5032370;28;20583;-65
2021/04/18 06:52:11;;;;;;;37.97;18.93;;;;;;;5.04;72.45;98811.47;5025938;28;20041;-66
2021/04/18 06:54:37;;;;;;;27.80;17.03;;;;;;;4.99;72.94;98818.19;5020848;28;20388;-65
2021/04/18 06:57:02;;;;;;;31.67;18.60;;;;;;;4.99;72.63;98822.41;5024227;28;20037;-66
2021/04/18 06:59:28;;;;;;;32.50;18.50;;;;;;;4.95;72.74;98810.53;5030332;28;20033;-64
2021/04/18 07:01:53;;;;;;;32.70;17.47;;;;;;;4.98;72.63;98823.25;5045947;28;20032;-66
2021/04/18 07:04:21;;;;;;;28.57;17.27;;;;;;;5.12;72.66;98821.66;5026606;28;20025;-65
2021/04/18 07:06:50;;;;;;;30.00;16.60;;;;;;;5.09;72.74;98818.25;5024729;28;20542;-67
2021/04/18 07:09:19;;;;;;;30.23;17.07;;;;;;;5.20;72.81;98819.16;5030554;28;20221;-66
2021/04/18 07:11:56;;;;;;;34.93;18.20;;;;;;;5.15;72.65;98821.66;5029433;28;20021;-67
2021/04/18 07:14:35;;;;;;;33.03;18.13;;;;;;;5.18;72.45;98821.66;5027069;28;20229;-63
2021/04/18 07:17:09;;;;;;;34.57;17.63;;;;;;;5.10;73.27;98818.25;5026802;28;20021;-65
2021/04/18 07:19:37;;;;;;;34.37;17.70;;;;;;;5.20;72.69;98814.91;5033827;28;20040;-64
2021/04/18 07:22:04;;;;;;;32.00;16.50;;;;;;;5.23;72.52;98817.47;5026281;28;20026;-64
2021/04/18 07:24:30;;;;;;;28.47;16.30;;;;;;;5.34;71.88;98813.31;5029681;28;20183;-64
2021/04/18 07:26:56;;;;;;;30.10;16.17;;;;;;;5.35;71.94;98803.97;5035593;28;20033;-64
2021/04/18 07:29:23;;;;;;;28.13;15.27;;;;;;;5.28;71.88;98810.72;5028355;28;20029;-64
2021/04/18 07:31:49;;;;;;;32.03;16.43;;;;;;;5.27;72.38;98813.25;5023191;28;20021;-64
2021/04/18 07:34:22;;;;;;;28.17;17.03;;;;;;;5.31;72.17;98814.97;5026566;28;20037;-64
2021/04/18 07:36:50;;;;;;;28.30;16.83;;;;;;;5.33;72.09;98818.38;5030419;28;20060;-65
2021/04/18 07:39:18;;;;;;;31.53;16.77;;;;;;;5.42;72.29;98815.88;5031871;28;20032;-64
2021/04/18 07:41:45;;;;;;;32.13;17.70;;;;;;;5.39;71.97;98816.69;5025696;28;20041;-64
2021/04/18 07:44:16;;;;;;;28.97;16.07;;;;;;;5.46;72.16;98817.59;5030677;28;20095;-66
2021/04/18 07:46:50;;;;;;;27.93;15.47;;;;;;;5.45;72.00;98821.81;5036709;28;20025;-64
2021/04/18 07:49:17;;;;;;;25.47;16.63;;;;;;;5.41;71.95;98822.66;5034903;28;20029;-64
2021/04/18 07:51:45;;;;;;;28.50;16.07;;;;;;;5.56;72.33;98819.31;5028803;28;20029;-64
2021/04/18 07:54:12;;;;;;;25.60;15.60;;;;;;;5.74;70.99;98824.47;5028882;28;20025;-64
2021/04/18 07:56:44;;;;;;;26.33;15.67;;;;;;;5.75;71.34;98810.06;5034284;28;20211;-64
2021/04/18 07:59:13;;;;;;;24.40;15.30;;;;;;;5.86;70.65;98823.66;5031535;28;20256;-65
2021/04/18 08:01:39;;;;;;;26.93;16.40;;;;;;;5.66;71.34;98823.59;5025761;28;20037;-64
2021/04/18 08:04:04;;;;;;;28.17;15.40;;;;;;;5.67;71.02;98821.91;5028850;28;20804;-64
2021/04/18 08:06:30;;;;;;;27.87;15.03;;;;;;;5.66;71.14;98831.22;5028805;28;20057;-64
2021/04/18 08:08:55;;;;;;;21.63;13.30;;;;;;;5.63;70.66;98830.38;5033825;28;20310;-64
2021/04/18 08:11:23;;;;;;;21.90;13.07;;;;;;;5.62;71.18;98833.75;5036219;28;20082;-64
2021/04/18 08:13:52;;;;;;;25.93;14.70;;;;;;;5.66;71.08;98831.22;5032141;28;20060;-64
2021/04/18 08:16:29;;;;;;;23.60;13.77;;;;;;;5.73;70.94;98835.47;5028543;28;20084;-64
2021/04/18 08:19:08;;;;;;;24.87;15.03;;;;;;;5.83;70.62;98841.44;5027594;28;20025;-64
2021/04/18 08:21:40;;;;;;;25.60;14.70;;;;;;;5.71;70.85;98829.56;5025379;28;20129;-64
2021/04/18 08:24:18;;;;;;;24.87;13.70;;;;;;;5.89;70.16;98828.81;5033369;28;20458;-64
2021/04/18 08:27:08;;;;;;;25.57;15.13;;;;;;;5.88;70.63;98829.63;5029544;28;20048;-64
2021/04/18 08:29:35;;;;;;;25.77;14.80;;;;;;;6.03;70.50;98834.75;5033419;28;20036;-64
2021/04/18 08:32:07;;;;;;;24.97;15.43;;;;;;;6.01;70.49;98827.97;5027388;28;20029;-65
2021/04/18 08:34:36;;;;;;;28.50;14.87;;;;;;;6.01;70.18;98831.38;5032342;28;20056;-64
2021/04/18 08:37:12;;;;;;;23.03;14.73;;;;;;;6.00;70.12;98831.34;5034366;28;20079;-65
2021/04/18 08:39:40;;;;;;;21.67;13.77;;;;;;;5.97;70.48;98837.28;5034725;28;20037;-68
2021/04/18 08:42:07;;;;;;;23.10;13.53;;;;;;;5.88;70.33;98832.19;5033076;28;20026;-62
2021/04/18 08:44:38;;;;;;;29.67;15.17;;;;;;;5.88;70.75;98835.56;5029460;28;20444;-65
2021/04/18 08:47:13;;;;;;;24.23;13.73;;;;;;;5.95;70.49;98837.28;5032240;28;20025;-65
2021/04/18 08:49:50;;;;;;;25.33;14.30;;;;;;;5.96;70.78;98840.69;5031832;28;20496;-65
2021/04/18 08:52:23;;;;;;;24.63;14.53;;;;;;;5.95;70.37;98842.38;5033138;28;20029;-64
2021/04/18 08:54:51;;;;;;;22.90;13.83;;;;;;;6.03;70.30;98833.91;5031042;28;20122;-63
2021/04/18 08:57:24;;;;;;;21.50;13.73;;;;;;;6.08;70.28;98835.63;5031496;28;20672;-64
2021/04/18 08:59:56;;;;;;;20.50;13.47;;;;;;;6.12;69.70;98844.94;5033285;28;20025;-64
2021/04/18 09:02:26;;;;;;;20.20;12.17;;;;;;;6.07;69.74;98833.91;5035670;28;20040;-64
2021/04/18 09:04:56;;;;;;;18.83;12.63;;;;;;;6.09;69.48;98834.78;5032651;28;20435;-64
2021/04/18 09:07:28;;;;;;;23.83;14.43;;;;;;;6.22;69.42;98831.41;5032865;28;20041;-65
2021/04/18 09:09:57;;;;;;;19.97;11.77;;;;;;;6.30;69.39;98833.97;5028728;28;20018;-64
2021/04/18 09:12:22;;;;;;;18.97;12.73;;;;;;;6.28;68.78;98839.03;5030489;28;20044;-63
2021/04/18 09:14:48;;;;;;;20.87;12.40;;;;;;;6.35;69.02;98830.56;5034023;28;20034;-63
2021/04/18 09:17:15;;;;;;;19.83;11.37;;;;;;;6.40;68.62;98828.03;5036272;28;20022;-62
2021/04/18 09:19:50;;;;;;;18.97;12.13;;;;;;;6.39;68.47;98831.44;5028863;28;20384;-62
2021/04/18 09:22:17;;;;;;;;;;;;;;;6.26;68.46;98835.66;5034171;28;20025;-62
2021/04/18 09:24:53;;;;;;;18.63;11.90;;;;;;;6.27;69.00;98827.19;5029620;28;20234;-60
2021/04/18 09:27:33;;;;;;;21.63;12.03;;;;;;;6.49;68.43;98825.50;5028745;28;20022;-60
2021/04/18 09:30:06;;;;;;;17.13;10.70;;;;;;;6.37;68.45;98818.69;5031654;28;20033;-62
2021/04/18 09:32:36;;;;;;;19.50;11.53;;;;;;;6.57;68.02;98826.34;5031789;28;20445;-60
2021/04/18 09:35:03;;;;;;;19.23;12.40;;;;;;;6.56;67.82;98823.78;5033630;28;20658;-62
2021/04/18 09:37:31;;;;;;;17.13;10.80;;;;;;;6.51;68.25;98822.94;5033698;28;20025;-62
2021/04/18 09:40:05;;;;;;;20.43;12.10;;;;;;;6.78;67.51;98825.50;5030803;28;20029;-62
2021/04/18 09:42:33;;;;;;;17.37;11.20;;;;;;;6.72;66.84;98823.78;5031539;28;20031;-62
2021/04/18 09:45:12;;;;;;;14.77;9.73;;;;;;;6.91;66.51;98816.97;5028132;28;20035;-61
2021/04/18 09:47:39;;;;;;;17.90;10.87;;;;;;;6.85;66.89;98817.81;5031003;28;20030;-61
2021/04/18 09:50:34;;;;;;;17.23;11.73;;;;;;;6.97;67.40;98813.56;5028086;28;20056;-61
2021/04/18 09:53:18;;;;;;;16.27;9.70;;;;;;;6.92;66.78;98818.66;5032236;28;20020;-63
2021/04/18 09:56:00;;;;;;;18.60;10.73;;;;;;;6.87;66.51;98815.28;5031634;28;20025;-62
2021/04/18 09:58:30;;;;;;;18.87;12.00;;;;;;;6.80;66.69;98816.13;5031190;28;20021;-64
2021/04/18 10:00:56;;;;;;;17.10;12.37;;;;;;;6.79;66.76;98806.78;5029209;28;20018;-62
2021/04/18 10:03:34;;;;;;;15.60;10.33;;;;;;;6.78;67.21;98808.50;5031361;28;20662;-62
2021/04/18 10:06:00;;;;;;;18.23;12.07;;;;;;;6.81;66.94;98820.38;5028741;28;20021;-62
2021/04/18 10:08:34;;;;;;;17.63;10.40;;;;;;;6.91;66.72;98824.63;5030654;28;20079;-62
2021/04/18 10:11:02;;;;;;;17.53;11.60;;;;;;;6.77;67.19;98828.88;5029024;28;20022;-61
2021/04/18 10:13:51;;;;;;;18.10;11.30;;;;;;;6.99;66.96;98819.50;5024357;28;20240;-61
2021/04/18 10:16:21;;;;;;;20.90;12.13;;;;;;;6.86;66.81;98819.53;5029587;28;20029;-61
2021/04/18 10:19:14;;;;;;;18.50;11.57;;;;;;;6.98;66.54;98818.66;5026978;28;20033;-61
2021/04/18 10:21:42;;;;;;;18.80;11.30;;;;;;;6.92;66.52;98812.75;5032111;28;20079;-61
2021/04/18 10:24:29;;;;;;;16.83;10.50;;;;;;;6.95;66.87;98822.91;5031420;28;20310;-61
2021/04/18 10:26:55;;;;;;;18.73;11.90;;;;;;;6.96;66.86;98817.78;5028438;28;20021;-61
2021/04/18 10:29:21;;;;;;;18.83;12.27;;;;;;;7.09;66.52;98827.13;5029005;28;20037;-61
2021/04/18 10:31:46;;;;;;;16.80;9.93;;;;;;;7.03;66.51;98821.19;5030866;28;20029;-61
2021/04/18 10:34:12;;;;;;;14.67;10.47;;;;;;;7.08;65.96;98815.25;5030289;28;20033;-62
2021/04/18 10:36:38;;;;;;;19.40;12.57;;;;;;;7.15;66.22;98818.63;5031233;28;20033;-62
2021/04/18 10:39:04;;;;;;;17.67;10.93;;;;;;;7.25;65.86;98817.75;5033574;28;20029;-61
2021/04/18 10:41:30;;;;;;;17.00;10.87;;;;;;;7.20;66.35;98819.47;5027732;28;20021;-61
2021/04/18 10:43:56;;;;;;;19.30;11.30;;;;;;;7.19;65.98;98818.63;5030935;28;20079;-62
2021/04/18 10:46:21;;;;;;;20.30;11.30;;;;;;;7.14;65.92;98820.31;5029540;28;20018;-61
2021/04/18 10:48:47;;;;;;;19.30;12.30;;;;;;;7.14;66.81;98817.78;5028671;28;20120;-61
2021/04/18 10:51:13;;;;;;;18.20;11.27;;;;;;;7.09;66.52;98822.03;5031206;28;20476;-61
2021/04/18 10:53:38;;;;;;;20.43;12.40;;;;;;;7.19;66.46;98810.97;5028777;28;20037;-61
2021/04/18 10:56:04;;;;;;;17.77;10.50;;;;;;;7.30;65.91;98814.31;5030642;28;20031;-61
2021/04/18 10:58:30;;;;;;;19.30;10.67;;;;;;;7.34;65.88;98798.16;5028332;28;20104;-62
2021/04/18 11:00:55;;;;;;;17.27;10.37;;;;;;;7.37;65.93;98806.66;5021691;28;20036;-62
2021/04/18 11:03:20;;;;;;;19.23;10.93;;;;;;;7.30;66.19;98801.56;5029508;28;20072;-62
2021/04/18 11:05:47;;;;;;;19.87;11.60;;;;;;;7.61;66.01;98798.91;5030007;28;20147;-62
2021/04/18 11:08:13;;;;;;;20.03;11.77;;;;;;;7.79;65.38;98798.81;5027258;28;20053;-62
2021/04/18 11:10:39;;;;;;;17.23;11.23;;;;;;;7.74;64.86;98800.53;5028868;28;20302;-62
2021/04/18 11:13:04;;;;;;;17.07;10.97;;;;;;;7.61;64.90;98811.66;5029912;28;20028;-62
2021/04/18 11:15:29;;;;;;;19.23;10.07;;;;;;;7.61;65.10;98798.91;5027828;28;20543;-64
2021/04/18 11:17:55;;;;;;;16.80;10.47;;;;;;;7.56;65.55;98796.38;5032817;28;20048;-63
2021/04/18 11:20:20;;;;;;;19.17;12.13;;;;;;;7.69;65.21;98800.56;5032696;28;20292;-63
2021/04/18 11:22:46;;;;;;;18.30;11.27;;;;;;;7.77;64.74;98803.91;5034230;28;20025;-63
2021/04/18 11:25:13;;;;;;;18.10;11.07;;;;;;;7.83;64.80;98805.59;5032158;28;20290;-64
2021/04/18 11:27:40;;;;;;;15.93;10.50;;;;;;;7.63;65.37;98802.31;5027947;28;20057;-63